Pagrindinis puslapis
METAR-TAF:

METAR-TAF

Oro uostai :

Turku, Suomija

platuma: 60-31N, ilguma: 022-16E, Aukštis: 49 m

Dabartinis oras

Ataskaita buvo paskelbta 23 minutes, ne 19:20 UTC
Vėjas 7 kt iš Pietų/Pietvakarių, svyruoja nuo Pietų/Pietryčių ir Pietvakarių
Temperatūra 15°C
Drėgmė 63%
Slėgis 1020 hPa
Matomumas 10 km arba daugiau
nėra debesų žemiau 1500 m ir nėra kamuolinių lietaus debesų

METAR: EFTU 171920Z AUTO 20007KT 160V230 CAVOK 15/08 Q1020

Laikas: 22:43 (19:43 UTC)

Prognozė

Ataskaita buvo paskelbta 2 valandos ir 20 minutes, ne 17:23 UTC
Prognozė galioja nuo 17 metu 18 UTC su 18 metu 18 UTC
Vėjas 11 kt iš Pietų/Pietvakarių
Matomumas 10 km arba daugiau
nėra debesų žemiau 1500 m ir nėra kamuolinių lietaus debesų
Laikinai
nuo 18 metu 12 UTC su 18 metu 18 UTC
Vėjas 15 kt iš Pietų/Pietvakarių su gūsio iki 25 kt

TAF: EFTU 171723Z 1718/1818 20011KT CAVOK TEMPO 1812/1818 20015G25KT

Orai ataskaitas ir orų prognozės (METAR, TAF).

turimą stotys yra geltonos ir raudonos taškus žemėlapyje.

Perkelti pele per norėdami pamatyti stoties vardą.

Tada spustelėkite, norėdami matyti oro stebėjimo ir prognozės.

Norėdami pakeisti žemėlapį: spustelėkite ant žalios mygtukų su juodo kryžiaus žemyn,; žalią mygtuką su brūkšneliu, jei norite nutolinti; arba žalių rodyklių gretimoms žemėlapius.


METAR-TAF: